Aviation Digital Data Service (ADDS)

Output produced by METARs form (1908 UTC 27 March 2015)
found at http://aviationweather.gov/adds/metars/
 
KJXN 271720Z 2718/2818 34012G22KT P6SM SCT050 
     TEMPO 2718/2720 BKN035 
     FM280100 01005KT P6SM SKC